Phnom Penh International Airport
VDPP : now visible

Airfield :











YOU CAN JOIN US ON...

 
LOGIN :

Register | Disclaimer

   EN    FR    IT 

 









Legend :    VFR   Marginal VFR   IFR   Intensive IFR   Very Intensive IFR
Visi :
Ceiling :
>= 8 km
>= 3000ft
5 to 8 km
1000 to 3000 ft
1500m to 5 km
500 to 1000 ft
800 to 1500m
200 to 500 ft
< 800m
< 200 ft
Symbols :   Thunderstorms  Fog  Heavy snow  Heavy precipitations  Wind > 20 kt






- Airport Elevation : 40 ft
- IATA code : PNH


VDPP - Phnom Penh International

CURRENT METAR :
  • 271030Z 27004KT 240V320 8000 -RA SCT015 BKN040 26/25 Q1004

EXPIRED METARs :
  • 271000Z VRB03KT 8000 -RA SCT015 FEW017CB BKN040 26/25 Q1004 RMK CB:N/E
  • 270930Z VRB03KT 8000 -RA SCT015 FEW017CB BKN040 25/24 Q1003 RMK CB:N/E
  • 270900Z 28004KT 240V310 7000 -RA SCT015 FEW017CB BKN040 25/25 Q1003 RMK CB:SW/E
  • 270830Z 29004KT 240V330 5000 RA SCT015 FEW017CB BKN040 25/25 Q1003 RMK CB:SW/E
  • 270800Z 28006KT 220V330 5000 RA SCT015 FEW017CB BKN040 25/24 Q1003 RMK CB:SW/E

TAF TAF VDPP
Valid from the 27 at 06:00 until the 28 at 00:00 UTC


270500Z 2706/2724 27010KT 9999 SCT017 SCT040
TEMPO 2707/2712 25017G27KT 5000 TSRA SCT015 FEW017CB BKN040
VDPP FIR / Asia



MET'MAP, your aeronautical weather chart ! - Copyright ORBIFLY December 2007 - Disclaimer

ORBIFLY MET'MAP TEAM :

Programming & Development : Alexandra Zaïnal
Original concept : Baudouin d'Aumeries
Technical & hardware support : Manuel Goepfert
Assistance : Marc-Olivier Méhu




SOURCES & CREDITS :

   NOAA       Earth
Advisory